Time;durP1;ratioP1;P1;durP2;ratioP2;P2;SDS_P1;SDS_P2;PMS_P1;PMS_P2;Temp;Humidity;BMP_temperature;BMP_pressure;BME280_temperature;BME280_humidity;BME280_pressure;Samples;Min_cycle;Max_cycle;Signal;HPM_P1;HPM_P2
2022/03/13 00:00:54;;;;;;;16.35;6.32;;;;;;;3.46;27.33;99810.50;4487205;31;20138;-78
2022/03/13 00:03:21;;;;;;;17.02;6.20;;;;;;;3.47;27.53;99812.22;4487285;31;20080;-78
2022/03/13 00:05:49;;;;;;;16.70;6.47;;;;;;;3.41;27.72;99810.53;4485978;32;20084;-78
2022/03/13 00:08:28;;;;;;;18.23;6.75;;;;;;;3.42;27.51;99804.44;4487280;31;20152;-79
2022/03/13 00:10:58;;;;;;;17.30;7.28;;;;;;;3.41;27.34;99802.72;4486903;31;20774;-78
2022/03/13 00:13:31;;;;;;;20.33;7.87;;;;;;;3.28;27.28;99807.19;4486056;32;20057;-78
2022/03/13 00:15:58;;;;;;;17.15;6.97;;;;;;;3.12;27.64;99806.41;4485863;32;20152;-78
2022/03/13 00:18:23;;;;;;;20.00;7.43;;;;;;;3.20;27.37;99805.50;4487187;31;20112;-78
2022/03/13 00:20:51;;;;;;;18.02;7.32;;;;;;;3.24;27.34;99805.44;4487212;31;20118;-78
2022/03/13 00:23:16;;;;;;;19.90;6.53;;;;;;;3.27;27.51;99804.59;4487070;31;20143;-78
2022/03/13 00:25:42;;;;;;;18.45;7.05;;;;;;;3.28;27.68;99803.69;4487078;31;20084;-79
2022/03/13 00:28:08;;;;;;;19.45;7.15;;;;;;;3.25;27.71;99801.13;4485813;32;20105;-78
2022/03/13 00:30:35;;;;;;;18.15;6.45;;;;;;;3.26;27.66;99803.69;4487010;32;20088;-78
2022/03/13 00:33:01;;;;;;;17.48;6.40;;;;;;;3.25;27.63;99798.53;4487140;31;20114;-79
2022/03/13 00:35:27;;;;;;;17.50;6.68;;;;;;;3.19;27.69;99802.03;4485722;32;20064;-78
2022/03/13 00:37:54;;;;;;;15.05;5.95;;;;;;;3.19;27.69;99795.94;4485759;32;20126;-79
2022/03/13 00:40:20;;;;;;;17.08;6.35;;;;;;;3.16;27.74;99796.84;4485812;32;20177;-79
2022/03/13 00:42:46;;;;;;;17.50;6.60;;;;;;;3.16;28.04;99802.06;4486991;31;20118;-79
2022/03/13 00:45:12;;;;;;;16.05;6.10;;;;;;;3.14;28.33;99798.59;4486856;31;20419;-79
2022/03/13 00:47:37;;;;;;;17.12;6.30;;;;;;;3.03;28.12;99796.06;4486729;31;20096;-79
2022/03/13 00:50:03;;;;;;;15.88;6.22;;;;;;;3.01;27.94;99799.56;4485654;32;20136;-78
2022/03/13 00:52:29;;;;;;;16.08;6.68;;;;;;;3.08;27.84;99796.91;4486707;31;20137;-78
2022/03/13 00:54:54;;;;;;;14.98;5.90;;;;;;;3.12;28.00;99795.16;4485617;32;20373;-78
2022/03/13 00:57:20;;;;;;;14.65;5.85;;;;;;;3.10;28.21;99796.91;4486738;32;20121;-78
2022/03/13 00:59:46;;;;;;;13.68;5.78;;;;;;;3.12;28.41;99787.34;4485326;32;20135;-78
2022/03/13 01:02:13;;;;;;;15.52;6.18;;;;;;;3.13;28.47;99783.88;4485677;32;20084;-78
2022/03/13 01:04:38;;;;;;;12.73;5.60;;;;;;;3.10;28.61;99784.75;4485526;32;20096;-78
2022/03/13 01:07:04;;;;;;;17.95;6.00;;;;;;;3.06;28.46;99785.66;4486554;31;20092;-79
2022/03/13 01:09:29;;;;;;;15.38;6.10;;;;;;;2.94;28.04;99783.16;4486610;31;20080;-79
2022/03/13 01:11:55;;;;;;;15.82;5.45;;;;;;;3.00;27.87;99775.28;4485222;32;20412;-79
2022/03/13 01:14:21;;;;;;;13.62;5.30;;;;;;;3.02;27.95;99778.75;4486556;31;20088;-79
2022/03/13 01:16:46;;;;;;;13.50;5.20;;;;;;;3.03;27.95;99783.06;4486557;31;20104;-79
2022/03/13 01:19:12;;;;;;;15.60;5.50;;;;;;;3.06;28.15;99777.84;4486451;31;20088;-79
2022/03/13 01:21:40;;;;;;;14.27;5.37;;;;;;;3.07;28.36;99779.59;4485262;32;20136;-79
2022/03/13 01:24:05;;;;;;;14.00;5.55;;;;;;;3.08;28.40;99785.63;4487167;31;20084;-78
2022/03/13 01:26:37;;;;;;;16.20;6.20;;;;;;;3.08;28.27;99788.25;4488302;32;20247;-79
2022/03/13 01:29:13;;;;;;;16.37;5.93;;;;;;;3.07;28.08;99791.72;4488425;31;20088;-79
2022/03/13 01:31:46;;;;;;;14.52;5.97;;;;;;;3.07;27.98;99783.91;4487122;32;20144;-79
2022/03/13 01:34:13;;;;;;;15.05;6.18;;;;;;;3.08;28.09;99785.63;4487118;32;20084;-79
2022/03/13 01:36:39;;;;;;;15.80;5.72;;;;;;;3.05;28.32;99775.25;4473886;32;20176;-79
2022/03/13 01:39:06;;;;;;;14.90;5.68;;;;;;;3.04;28.65;99777.00;4487065;32;20127;-79
2022/03/13 01:41:33;;;;;;;14.55;6.10;;;;;;;3.05;28.70;99776.12;4486934;32;20106;-78
2022/03/13 01:43:59;;;;;;;15.15;6.32;;;;;;;2.94;28.65;99778.81;4488337;31;20111;-79
2022/03/13 01:46:28;;;;;;;17.70;6.32;;;;;;;2.96;28.40;99776.19;4488166;31;20096;-78
2022/03/13 01:48:59;;;;;;;15.52;6.22;;;;;;;3.00;28.25;99771.84;4486986;32;20459;-79
2022/03/13 01:51:25;;;;;;;14.52;5.53;;;;;;;2.99;28.33;99765.75;4486991;32;20145;-79
2022/03/13 01:53:52;;;;;;;15.05;5.47;;;;;;;3.01;28.49;99760.53;4473492;32;20110;-79
2022/03/13 01:56:18;;;;;;;14.05;5.32;;;;;;;2.99;28.54;99763.13;4486946;32;20392;-79
2022/03/13 01:58:44;;;;;;;13.98;5.40;;;;;;;2.88;28.18;99763.25;4487990;31;20089;-78
2022/03/13 02:01:11;;;;;;;11.90;4.53;;;;;;;2.95;27.88;99751.91;4473613;32;20114;-79
2022/03/13 02:03:36;;;;;;;12.40;5.28;;;;;;;2.94;27.74;99755.38;4487285;32;20110;-78
2022/03/13 02:06:01;;;;;;;12.82;4.85;;;;;;;2.86;27.54;99757.19;4487161;32;20356;-79
2022/03/13 02:08:27;;;;;;;13.30;4.80;;;;;;;2.92;27.37;99751.06;4488166;32;20130;-79
2022/03/13 02:10:52;;;;;;;13.32;4.28;;;;;;;2.78;27.38;99751.16;4488306;31;20513;-79
2022/03/13 02:13:21;;;;;;;13.35;4.93;;;;;;;2.82;27.31;99752.88;4473921;32;20101;-79
2022/03/13 02:15:47;;;;;;;13.23;5.43;;;;;;;2.90;27.26;99755.44;4488051;31;20097;-79
2022/03/13 02:18:12;;;;;;;13.27;5.15;;;;;;;2.93;27.42;99745.81;4486665;32;20482;-79
2022/03/13 02:20:45;;;;;;;13.75;5.25;;;;;;;2.96;27.31;99744.97;4488022;31;20092;-79
2022/03/13 02:23:15;;;;;;;17.60;5.45;;;;;;;2.98;27.08;99740.59;4486815;32;20085;-79
2022/03/13 02:25:41;;;;;;;11.48;4.10;;;;;;;2.87;26.89;99743.28;4487858;32;20119;-79
2022/03/13 02:28:06;;;;;;;12.13;4.00;;;;;;;2.87;26.59;99740.69;4486667;32;20470;-79
2022/03/13 02:30:32;;;;;;;13.25;4.10;;;;;;;2.94;26.38;99739.75;4488011;31;20438;-79
2022/03/13 02:32:57;;;;;;;14.95;4.25;;;;;;;2.99;26.28;99733.66;4486741;32;20100;-79
2022/03/13 02:35:22;;;;;;;12.55;4.90;;;;;;;3.00;26.35;99735.38;4487884;31;20456;-79
2022/03/13 02:37:48;;;;;;;13.27;4.10;;;;;;;2.95;26.46;99743.22;4486748;32;20100;-79
2022/03/13 02:40:19;;;;;;;13.05;4.62;;;;;;;2.83;26.89;99738.12;4487049;32;20084;-79
2022/03/13 02:42:44;;;;;;;13.18;4.35;;;;;;;2.97;26.72;99738.88;4487978;31;20121;-79
2022/03/13 02:45:10;;;;;;;11.57;4.20;;;;;;;2.93;26.55;99750.19;4486852;32;20092;-79
2022/03/13 02:47:35;;;;;;;11.50;4.30;;;;;;;2.98;26.55;99750.16;4486483;32;20084;-79
2022/03/13 02:50:01;;;;;;;12.52;4.05;;;;;;;2.90;26.76;99748.47;4487619;31;20226;-79
2022/03/13 02:52:27;;;;;;;12.32;4.03;;;;;;;2.99;26.55;99736.25;4486329;32;20107;-78
2022/03/13 02:54:53;;;;;;;11.30;3.90;;;;;;;3.00;26.59;99730.19;4487889;31;20127;-79
2022/03/13 02:57:18;;;;;;;11.48;4.07;;;;;;;3.00;26.70;99727.59;4486447;32;20478;-79
2022/03/13 02:59:44;;;;;;;14.80;4.55;;;;;;;2.99;26.63;99728.44;4487693;31;20133;-79
2022/03/13 03:02:09;;;;;;;11.52;4.12;;;;;;;3.01;26.57;99724.09;4486260;32;20092;-79
2022/03/13 03:04:34;;;;;;;10.88;3.85;;;;;;;3.00;26.62;99724.97;4487682;31;20096;-79
2022/03/13 03:07:02;;;;;;;13.23;4.10;;;;;;;3.00;26.62;99727.59;4487487;31;20088;-79
2022/03/13 03:09:29;;;;;;;17.27;5.00;;;;;;;2.99;26.36;99726.69;4486521;32;20092;-79
2022/03/13 03:11:57;;;;;;;18.20;4.32;;;;;;;2.90;26.16;99726.81;4486295;32;20087;-79
2022/03/13 03:14:23;;;;;;;10.95;4.12;;;;;;;2.89;25.79;99720.72;4486283;32;20108;-79
2022/03/13 03:16:48;;;;;;;13.77;4.43;;;;;;;2.91;25.69;99718.09;4486670;32;20096;-78
2022/03/13 03:19:14;;;;;;;14.02;3.97;;;;;;;2.89;25.87;99720.72;4487471;31;20425;-79
2022/03/13 03:21:40;;;;;;;12.70;3.87;;;;;;;2.91;25.96;99716.34;4473099;32;20100;-79
2022/03/13 03:24:13;;;;;;;11.30;4.20;;;;;;;2.92;26.03;99722.44;4486374;32;20104;-79
2022/03/13 03:26:39;;;;;;;12.30;4.18;;;;;;;2.92;26.16;99722.44;4486368;32;20096;-79
2022/03/13 03:29:04;;;;;;;10.98;4.15;;;;;;;2.90;26.29;99722.44;4486275;32;20096;-78
2022/03/13 03:31:30;;;;;;;11.40;3.97;;;;;;;2.92;26.45;99722.44;4487413;32;20084;-79
2022/03/13 03:33:55;;;;;;;12.27;3.85;;;;;;;2.90;26.47;99719.84;4486322;32;20104;-79
2022/03/13 03:36:21;;;;;;;10.30;3.67;;;;;;;2.87;26.54;99714.66;4487455;31;20088;-78
2022/03/13 03:38:47;;;;;;;11.27;4.15;;;;;;;2.86;26.64;99707.75;4487184;31;20089;-79
2022/03/13 03:41:12;;;;;;;12.20;4.95;;;;;;;2.86;26.79;99707.75;4487373;31;20076;-79
2022/03/13 03:43:38;;;;;;;12.37;4.32;;;;;;;2.80;27.08;99700.00;4486163;32;20169;-78
2022/03/13 03:46:03;;;;;;;13.45;4.57;;;;;;;2.83;27.13;99704.28;4485317;32;20126;-79
2022/03/13 03:48:29;;;;;;;11.70;4.35;;;;;;;2.81;27.20;99700.84;4486096;32;20133;-78
2022/03/13 03:50:55;;;;;;;11.35;4.50;;;;;;;2.80;27.25;99700.00;4473082;32;20089;-79
2022/03/13 03:53:20;;;;;;;12.05;4.37;;;;;;;2.80;27.44;99697.38;4487122;31;20344;-79
2022/03/13 03:55:46;;;;;;;10.70;4.03;;;;;;;2.80;27.48;99694.78;4487333;32;20118;-79
2022/03/13 03:58:12;;;;;;;11.98;4.40;;;;;;;2.77;27.65;99697.41;4486215;32;20145;-79
2022/03/13 04:00:38;;;;;;;12.40;4.57;;;;;;;2.70;27.79;99706.97;4487193;31;20104;-79
2022/03/13 04:03:03;;;;;;;11.95;4.05;;;;;;;2.55;27.58;99702.78;4487545;31;20101;-79
2022/03/13 04:05:29;;;;;;;12.70;4.55;;;;;;;2.68;27.38;99703.53;4473131;32;20095;-79
2022/03/13 04:07:54;;;;;;;13.07;4.53;;;;;;;2.70;27.41;99688.75;4487577;31;20182;-79
2022/03/13 04:10:20;;;;;;;12.05;4.10;;;;;;;2.73;27.43;99693.97;4486311;32;20103;-78
2022/03/13 04:12:45;;;;;;;12.77;4.72;;;;;;;2.73;27.49;99688.75;4485994;32;20088;-79
2022/03/13 04:15:11;;;;;;;11.90;4.37;;;;;;;2.76;27.50;99690.47;4487140;31;20428;-79
2022/03/13 04:17:36;;;;;;;12.50;4.32;;;;;;;2.72;27.54;99686.16;4487008;31;20084;-79
2022/03/13 04:20:03;;;;;;;10.60;3.92;;;;;;;2.75;27.43;99687.00;4472759;32;20085;-79
2022/03/13 04:22:29;;;;;;;12.05;4.60;;;;;;;2.75;27.38;99689.59;4487068;31;20115;-79
2022/03/13 04:24:54;;;;;;;11.52;4.32;;;;;;;2.77;27.12;99689.59;4485535;32;20387;-79
2022/03/13 04:27:20;;;;;;;12.10;4.40;;;;;;;2.51;26.60;99684.59;4487167;31;20111;-79
2022/03/13 04:29:45;;;;;;;11.82;4.28;;;;;;;2.51;26.36;99687.19;4486950;32;20412;-78
2022/03/13 04:32:11;;;;;;;11.50;4.12;;;;;;;2.71;26.25;99687.91;4485749;32;20468;-79
2022/03/13 04:34:36;;;;;;;11.20;4.45;;;;;;;2.42;26.68;99684.69;4487024;31;20119;-79
2022/03/13 04:37:02;;;;;;;11.88;4.12;;;;;;;2.65;26.42;99682.75;4487275;32;20084;-79
2022/03/13 04:39:33;;;;;;;15.35;5.07;;;;;;;2.72;26.63;99684.44;4486009;32;20076;-79
2022/03/13 04:41:59;;;;;;;11.68;4.35;;;;;;;2.72;26.59;99684.44;4486131;32;20100;-79
2022/03/13 04:44:24;;;;;;;12.23;4.22;;;;;;;2.75;26.52;99683.53;4485925;32;20109;-79
2022/03/13 04:46:50;;;;;;;12.98;4.25;;;;;;;2.73;26.78;99680.09;4485948;32;20467;-79
2022/03/13 04:49:15;;;;;;;10.50;3.92;;;;;;;2.73;26.60;99686.16;4485772;32;20092;-79
2022/03/13 04:51:40;;;;;;;11.82;4.22;;;;;;;2.76;26.38;99690.47;4485851;32;20120;-79
2022/03/13 04:54:07;;;;;;;10.38;3.83;;;;;;;2.79;26.09;99687.84;4486850;31;20080;-79
2022/03/13 04:56:33;;;;;;;14.30;4.62;;;;;;;2.76;25.93;99682.66;4485948;32;20095;-79
2022/03/13 04:58:59;;;;;;;11.70;4.10;;;;;;;2.84;25.84;99680.87;4486964;31;20368;-79
2022/03/13 05:01:24;;;;;;;12.02;4.00;;;;;;;2.84;25.87;99678.28;4486884;31;20096;-79
2022/03/13 05:03:50;;;;;;;12.57;4.40;;;;;;;2.90;25.19;99686.00;4485847;32;20100;-79
2022/03/13 05:06:15;;;;;;;11.38;4.47;;;;;;;2.85;25.18;99684.31;4486877;31;20089;-79
2022/03/13 05:08:41;;;;;;;13.52;4.18;;;;;;;2.82;25.27;99684.34;4485549;32;20080;-79
2022/03/13 05:11:07;;;;;;;14.63;5.85;;;;;;;2.88;25.33;99681.72;4486577;31;20122;-79
2022/03/13 05:13:33;;;;;;;14.38;4.28;;;;;;;2.91;25.28;99684.25;4486582;31;20119;-79
2022/03/13 05:15:59;;;;;;;12.60;4.85;;;;;;;2.56;25.62;99688.87;4485441;32;20485;-79
2022/03/13 05:18:24;;;;;;;11.65;3.97;;;;;;;2.79;25.40;99687.84;4485185;32;20081;-79
2022/03/13 05:20:50;;;;;;;13.93;4.43;;;;;;;2.82;25.41;99686.94;4485219;32;20103;-79
2022/03/13 05:23:15;;;;;;;13.45;4.12;;;;;;;2.97;25.31;99688.56;4486428;31;20402;-78
2022/03/13 05:25:41;;;;;;;13.27;4.82;;;;;;;3.05;25.38;99690.22;4486329;31;20076;-78
2022/03/13 05:28:08;;;;;;;13.13;4.70;;;;;;;3.13;25.82;99683.19;4486278;32;20114;-79
2022/03/13 05:30:34;;;;;;;11.48;4.22;;;;;;;3.27;25.73;99677.00;4485172;32;20177;-79
2022/03/13 05:33:00;;;;;;;14.10;4.45;;;;;;;3.35;25.56;99683.81;4485092;32;20512;-79
2022/03/13 05:35:26;;;;;;;16.00;4.20;;;;;;;3.39;25.33;99684.66;4485127;32;20089;-78
2022/03/13 05:37:52;;;;;;;11.30;4.03;;;;;;;3.53;25.20;99677.56;4484970;32;20064;-79
2022/03/13 05:40:19;;;;;;;11.77;4.28;;;;;;;3.70;25.32;99671.28;4486171;31;20110;-78
2022/03/13 05:42:49;;;;;;;13.68;4.00;;;;;;;3.82;25.62;99678.91;4484979;32;20131;-79
2022/03/13 05:45:15;;;;;;;15.00;4.30;;;;;;;3.98;26.33;99681.31;4485019;32;20167;-78
2022/03/13 05:47:48;;;;;;;12.15;4.05;;;;;;;3.99;26.84;99685.69;4484948;32;20440;-78
2022/03/13 05:50:14;;;;;;;15.00;4.70;;;;;;;4.10;27.11;99673.34;4484909;32;20112;-79
2022/03/13 05:52:41;;;;;;;11.70;4.32;;;;;;;4.28;26.83;99691.34;4484707;32;20092;-78
2022/03/13 05:55:08;;;;;;;13.35;4.85;;;;;;;4.35;26.48;99692.12;4485982;31;20208;-78
2022/03/13 05:57:34;;;;;;;11.60;5.03;;;;;;;4.32;26.56;99694.75;4484830;32;20111;-78
2022/03/13 05:59:59;;;;;;;14.18;5.30;;;;;;;4.36;25.87;99701.66;4485792;31;20405;-79
2022/03/13 06:02:25;;;;;;;16.02;5.28;;;;;;;4.43;25.63;99697.22;4484491;32;20104;-78
2022/03/13 06:04:52;;;;;;;14.75;5.28;;;;;;;4.56;24.53;99692.66;4471484;32;20084;-78
2022/03/13 06:07:18;;;;;;;13.18;4.68;;;;;;;4.66;24.54;99689.91;4485749;31;20101;-79
2022/03/13 06:09:44;;;;;;;14.73;5.03;;;;;;;4.70;24.42;99698.53;4486395;31;20150;-78
2022/03/13 06:12:09;;;;;;;13.90;5.28;;;;;;;4.82;26.53;99698.34;4487015;32;20101;-78
2022/03/13 06:14:35;;;;;;;16.10;5.22;;;;;;;4.78;27.15;99699.28;4487037;32;20080;-78
2022/03/13 06:17:00;;;;;;;14.75;5.40;;;;;;;4.76;27.36;99702.81;4487020;32;20080;-78
2022/03/13 06:19:26;;;;;;;16.52;5.87;;;;;;;4.86;26.63;99700.00;4473608;32;20101;-78
2022/03/13 06:21:51;;;;;;;15.82;5.87;;;;;;;4.85;25.94;99693.06;4487916;31;20084;-78
2022/03/13 06:24:17;;;;;;;13.30;5.22;;;;;;;5.00;25.72;99694.53;4487987;31;20104;-78
2022/03/13 06:26:43;;;;;;;14.23;5.43;;;;;;;5.11;26.75;99702.19;4487874;32;20080;-78
2022/03/13 06:29:08;;;;;;;15.27;5.87;;;;;;;4.98;26.75;99700.69;4473508;32;20464;-78
2022/03/13 06:31:34;;;;;;;13.52;5.12;;;;;;;5.07;26.73;99706.63;4487874;32;20140;-78
2022/03/13 06:33:59;;;;;;;12.52;5.18;;;;;;;5.05;26.76;99708.41;4486622;32;20080;-78
2022/03/13 06:36:24;;;;;;;14.93;5.97;;;;;;;5.06;26.87;99709.25;4487846;31;20084;-78
2022/03/13 06:38:50;;;;;;;15.10;6.07;;;;;;;4.91;26.27;99715.62;4487615;31;20115;-78
2022/03/13 06:41:18;;;;;;;15.50;6.18;;;;;;;5.10;26.18;99705.72;4487805;31;20137;-78
2022/03/13 06:43:44;;;;;;;15.60;5.85;;;;;;;5.13;24.55;99711.72;4486699;32;20162;-78
2022/03/13 06:46:10;;;;;;;14.30;5.82;;;;;;;5.30;25.49;99710.56;4488036;31;20080;-78
2022/03/13 06:48:35;;;;;;;13.62;5.35;;;;;;;5.35;26.26;99716.59;4487712;31;20120;-78
2022/03/13 06:51:00;;;;;;;16.48;5.78;;;;;;;5.44;26.29;99721.63;4487931;31;20080;-78
2022/03/13 06:53:26;;;;;;;12.95;5.37;;;;;;;5.47;26.81;99718.97;4486284;32;20412;-78
2022/03/13 06:55:52;;;;;;;13.68;5.43;;;;;;;5.40;27.04;99725.19;4487621;32;20096;-78
2022/03/13 06:58:21;;;;;;;14.48;5.82;;;;;;;5.59;27.17;99725.72;4486541;32;20108;-78
2022/03/13 07:00:48;;;;;;;16.02;6.03;;;;;;;5.20;27.17;99727.31;4486420;32;20104;-78
2022/03/13 07:03:13;;;;;;;17.37;6.53;;;;;;;5.47;26.85;99729.41;4487665;31;20482;-78
2022/03/13 07:05:40;;;;;;;20.02;6.20;;;;;;;5.63;26.74;99716.91;4486348;32;20108;-78
2022/03/13 07:08:05;;;;;;;18.73;7.05;;;;;;;5.70;26.21;99723.75;4487579;31;20124;-78
2022/03/13 07:10:30;;;;;;;18.27;6.25;;;;;;;5.79;25.77;99721.84;4487425;31;20111;-78
2022/03/13 07:12:56;;;;;;;17.17;6.97;;;;;;;5.86;25.69;99720.84;4487541;31;20110;-78
2022/03/13 07:15:22;;;;;;;15.68;6.57;;;;;;;5.89;24.52;99720.75;4486312;32;20152;-78
2022/03/13 07:17:47;;;;;;;15.48;6.57;;;;;;;5.93;24.60;99719.81;4487378;31;20127;-78
2022/03/13 07:20:14;;;;;;;16.42;7.05;;;;;;;6.00;24.90;99731.03;4486339;32;20148;-78
2022/03/13 07:22:42;;;;;;;14.77;6.70;;;;;;;6.02;25.00;99724.88;4485570;32;20139;-78
2022/03/13 07:25:08;;;;;;;16.75;6.50;;;;;;;6.12;24.41;99735.16;4486390;32;20123;-78
2022/03/13 07:27:34;;;;;;;19.15;7.93;;;;;;;6.16;23.21;99734.19;4487843;31;20112;-78
2022/03/13 07:29:59;;;;;;;18.90;7.62;;;;;;;6.19;22.93;99739.38;4487652;31;20444;-78
2022/03/13 07:32:24;;;;;;;18.77;7.87;;;;;;;6.27;23.33;99737.44;4487528;31;20357;-78
2022/03/13 07:34:50;;;;;;;19.73;8.18;;;;;;;6.19;23.18;99739.38;4482456;32;129284;-78
2022/03/13 07:37:15;;;;;;;19.48;8.80;;;;;;;6.12;24.09;99740.38;4487651;32;20099;-78
2022/03/13 07:39:41;;;;;;;24.85;11.27;;;;;;;5.99;24.15;99739.75;4487481;31;20139;-78
2022/03/13 07:42:09;;;;;;;21.60;10.68;;;;;;;6.21;24.96;99738.44;4487569;31;20353;-78
2022/03/13 07:44:34;;;;;;;22.80;9.90;;;;;;;6.24;24.16;99743.59;4486565;32;20106;-78
2022/03/13 07:47:00;;;;;;;19.52;9.23;;;;;;;6.28;23.63;99740.03;4487572;31;20120;-78
2022/03/13 07:49:25;;;;;;;19.73;9.60;;;;;;;6.37;23.69;99728.47;4485997;32;20375;-78
2022/03/13 07:51:51;;;;;;;23.17;10.30;;;;;;;6.38;23.61;99730.22;4487265;31;20115;-78
2022/03/13 07:54:19;;;;;;;20.12;9.48;;;;;;;6.37;23.68;99732.84;4485960;32;20476;-78
2022/03/13 07:56:45;;;;;;;20.40;8.60;;;;;;;6.56;23.16;99731.53;4487301;31;20473;-78
2022/03/13 07:59:10;;;;;;;17.05;8.45;;;;;;;6.46;22.74;99730.03;4487159;31;20107;-78
2022/03/13 08:01:36;;;;;;;19.40;8.82;;;;;;;6.73;22.73;99738.16;4486016;32;20132;-78
2022/03/13 08:04:04;;;;;;;19.37;8.93;;;;;;;6.66;22.65;99734.81;4472978;32;20377;-78
2022/03/13 08:06:32;;;;;;;19.15;8.48;;;;;;;6.79;22.22;99743.25;4485971;32;20104;-78
2022/03/13 08:08:58;;;;;;;18.92;9.10;;;;;;;6.82;22.53;99744.03;4486023;32;20123;-78
2022/03/13 08:11:23;;;;;;;19.85;9.45;;;;;;;6.82;22.45;99737.94;4485974;32;20084;-78
2022/03/13 08:13:49;;;;;;;19.37;8.35;;;;;;;6.86;22.29;99739.59;4487042;31;20106;-78
2022/03/13 08:16:15;;;;;;;19.30;8.82;;;;;;;6.94;21.94;99737.62;4486035;32;20469;-78
2022/03/13 08:18:40;;;;;;;17.75;7.20;;;;;;;6.97;21.56;99742.78;4487314;31;20083;-78
2022/03/13 08:21:06;;;;;;;20.98;7.75;;;;;;;7.06;21.69;99741.72;4487400;31;20099;-78
2022/03/13 08:23:31;;;;;;;19.90;9.50;;;;;;;6.86;21.36;99739.59;4486126;32;20111;-78
2022/03/13 08:25:57;;;;;;;20.70;10.20;;;;;;;6.97;21.95;99736.69;4487234;32;20116;-78
2022/03/13 08:28:22;;;;;;;20.73;9.20;;;;;;;7.07;22.55;99746.91;4472779;32;20146;-78
2022/03/13 08:30:48;;;;;;;21.20;9.75;;;;;;;7.17;22.14;99736.22;4487232;31;20140;-78
2022/03/13 08:33:13;;;;;;;25.10;10.68;;;;;;;7.14;22.62;99738.91;4485638;32;20119;-78
2022/03/13 08:35:39;;;;;;;21.33;9.23;;;;;;;7.13;22.62;99742.41;4487271;31;20389;-78
2022/03/13 08:38:04;;;;;;;22.77;11.10;;;;;;;7.15;22.31;99741.50;4485953;32;20113;-78
2022/03/13 08:40:30;;;;;;;22.13;10.80;;;;;;;7.16;23.31;99737.94;4472945;32;20104;-78
2022/03/13 08:42:56;;;;;;;22.42;11.65;;;;;;;7.11;23.34;99733.72;4487213;31;20088;-78
2022/03/13 08:45:21;;;;;;;23.60;11.18;;;;;;;7.18;23.25;99735.31;4472482;32;20100;-78
2022/03/13 08:47:47;;;;;;;24.75;11.07;;;;;;;7.04;23.31;99733.87;4485752;32;20127;-78
2022/03/13 08:50:13;;;;;;;23.30;11.40;;;;;;;7.13;23.20;99726.69;4486881;31;20099;-78
2022/03/13 08:52:40;;;;;;;25.75;11.32;;;;;;;7.17;23.38;99731.81;4486584;31;20085;-78
2022/03/13 08:55:08;;;;;;;22.55;11.48;;;;;;;7.24;23.19;99737.75;4485638;32;20148;-78
2022/03/13 08:57:34;;;;;;;25.88;10.52;;;;;;;7.20;23.47;99723.88;4485683;32;20223;-78
2022/03/13 09:00:00;;;;;;;21.87;11.07;;;;;;;7.23;23.46;99722.94;4486753;31;20076;-78
2022/03/13 09:02:25;;;;;;;24.52;12.55;;;;;;;7.33;23.06;99723.56;4486855;31;20153;-78
2022/03/13 09:04:51;;;;;;;24.00;12.37;;;;;;;7.40;23.24;99725.13;4485344;32;20116;-78
2022/03/13 09:07:16;;;;;;;22.73;11.57;;;;;;;7.34;23.82;99720.03;4485735;32;20173;-78
2022/03/13 09:09:42;;;;;;;21.77;11.85;;;;;;;7.29;23.59;99723.62;4486902;31;20141;-78
2022/03/13 09:12:08;;;;;;;17.48;8.52;;;;;;;7.33;23.19;99715.72;4485574;32;20084;-78
2022/03/13 09:14:35;;;;;;;20.23;8.73;;;;;;;7.41;21.82;99713.72;4486904;31;20119;-78
2022/03/13 09:17:01;;;;;;;15.83;7.03;;;;;;;7.52;21.13;99703.81;4485709;32;20112;-78
2022/03/13 09:19:27;;;;;;;16.00;7.07;;;;;;;7.60;20.73;99701.00;4485569;32;20110;-78
2022/03/13 09:21:52;;;;;;;16.05;6.68;;;;;;;7.67;20.09;99702.53;4485504;32;20098;-78
2022/03/13 09:24:18;;;;;;;15.63;6.75;;;;;;;7.63;19.77;99703.50;4486750;31;20424;-78
2022/03/13 09:26:45;;;;;;;17.42;7.97;;;;;;;7.81;19.66;99702.16;4486719;32;20123;-78
2022/03/13 09:29:10;;;;;;;17.33;7.47;;;;;;;7.95;19.42;99699.97;4485553;32;20201;-79
2022/03/13 09:31:35;;;;;;;17.45;7.80;;;;;;;7.96;19.74;99692.97;4485389;32;20084;-78
2022/03/13 09:34:01;;;;;;;17.20;8.32;;;;;;;8.04;19.82;99688.37;4486558;31;20355;-78
2022/03/13 09:36:27;;;;;;;19.25;8.45;;;;;;;8.13;19.97;99681.97;4486629;32;20152;-78
2022/03/13 09:38:58;;;;;;;18.62;8.40;;;;;;;8.29;19.94;99664.84;4486242;31;20107;-78
2022/03/13 09:41:24;;;;;;;18.08;9.10;;;;;;;8.40;19.89;99670.63;4486280;31;20488;-78
2022/03/13 09:43:52;;;;;;;17.98;8.20;;;;;;;8.41;19.83;99679.38;4486166;31;20104;-78
2022/03/13 09:46:17;;;;;;;;;;;;;;;8.48;19.86;99680.94;4474086;32;20112;-78
2022/03/13 09:48:43;;;;;;;17.90;7.43;;;;;;;8.59;19.39;99675.31;4474030;32;19984;-78
2022/03/13 09:51:09;;;;;;;18.12;7.43;;;;;;;8.69;19.50;99671.47;4487191;32;20356;-78
2022/03/13 09:53:35;;;;;;;21.02;8.13;;;;;;;8.80;18.72;99661.47;4487009;32;20360;-78
2022/03/13 09:56:03;;;;;;;16.95;8.38;;;;;;;8.90;18.98;99661.16;4487273;32;20229;-78
2022/03/13 09:58:29;;;;;;;;;;;;;;;8.89;19.16;99654.22;4487568;32;20089;-78
2022/03/13 10:00:54;;;;;;;16.12;6.93;;;;;;;9.08;19.01;99649.16;4487253;32;19988;-78
2022/03/13 10:03:20;;;;;;;17.27;7.55;;;;;;;9.08;18.70;99652.66;4488102;31;20420;-78
2022/03/13 10:05:49;;;;;;;19.20;7.70;;;;;;;9.10;18.99;99655.22;4486641;32;20092;-78
2022/03/13 10:08:15;;;;;;;16.87;6.78;;;;;;;9.08;18.79;99652.66;4488008;31;20092;-78
2022/03/13 10:10:49;;;;;;;15.40;6.72;;;;;;;9.20;18.08;99654.88;4488400;31;20084;-78
2022/03/13 10:13:16;;;;;;;14.70;6.30;;;;;;;9.25;18.17;99658.19;4488280;31;20104;-78
2022/03/13 10:15:47;;;;;;;14.57;6.45;;;;;;;9.29;17.86;99655.44;4487005;32;20108;-78
2022/03/13 10:18:15;;;;;;;13.23;5.62;;;;;;;9.34;17.83;99657.00;4486680;32;20107;-78
2022/03/13 10:20:41;;;;;;;14.45;6.28;;;;;;;9.34;17.47;99658.78;4487992;32;20076;-78
2022/03/13 10:23:10;;;;;;;16.75;7.07;;;;;;;9.33;17.41;99651.78;4486722;32;20136;-78
2022/03/13 10:25:41;;;;;;;16.80;6.47;;;;;;;9.52;17.17;99657.25;4488024;31;20092;-78
2022/03/13 10:28:15;;;;;;;14.95;6.40;;;;;;;9.42;17.39;99656.72;4486797;32;20121;-78
2022/03/13 10:30:42;;;;;;;16.87;6.43;;;;;;;9.59;17.27;99651.72;4486818;32;20201;-78
2022/03/13 10:33:08;;;;;;;15.68;6.20;;;;;;;9.59;17.01;99661.38;4486687;32;20136;-78
2022/03/13 10:35:37;;;;;;;16.42;5.97;;;;;;;9.63;16.44;99663.84;4487913;31;20487;-78
2022/03/13 10:38:20;;;;;;;16.30;6.32;;;;;;;9.64;16.36;99651.56;4487957;31;20415;-78
2022/03/13 10:40:56;;;;;;;12.55;5.82;;;;;;;9.59;16.57;99646.44;4486560;32;20083;-78
2022/03/13 10:43:26;;;;;;;13.98;5.82;;;;;;;9.59;16.28;99656.97;4486635;32;20168;-78
2022/03/13 10:45:53;;;;;;;14.43;6.47;;;;;;;9.62;16.29;99656.88;4474042;32;20097;-78
2022/03/13 10:48:33;;;;;;;14.30;5.40;;;;;;;9.64;16.32;99657.69;4486610;32;20144;-78
2022/03/13 10:51:04;;;;;;;14.50;5.68;;;;;;;9.61;15.59;99649.87;4486638;32;20148;-78
2022/03/13 10:53:29;;;;;;;14.75;6.20;;;;;;;9.63;15.68;99648.03;4487598;31;20167;-78
2022/03/13 10:56:12;;;;;;;14.45;6.28;;;;;;;9.53;15.82;99648.47;4486371;32;20081;-78
2022/03/13 10:58:44;;;;;;;16.80;6.40;;;;;;;9.64;15.64;99647.16;4486462;32;20132;-78
2022/03/13 11:01:18;;;;;;;17.23;6.75;;;;;;;9.72;15.92;99652.13;4486534;32;20084;-78
2022/03/13 11:03:55;;;;;;;16.33;6.82;;;;;;;9.82;16.72;99644.75;4486625;32;20140;-78
2022/03/13 11:06:25;;;;;;;18.52;7.03;;;;;;;9.76;16.44;99637.09;4486478;32;20130;-78
2022/03/13 11:08:55;;;;;;;14.85;6.55;;;;;;;9.80;16.55;99639.53;4473231;32;20577;-78
2022/03/13 11:11:27;;;;;;;15.85;6.72;;;;;;;9.81;16.62;99637.75;4487825;31;20201;-78
2022/03/13 11:13:57;;;;;;;15.18;6.53;;;;;;;9.76;16.55;99632.69;4486780;32;20161;-78
2022/03/13 11:16:30;;;;;;;14.87;6.12;;;;;;;9.81;16.43;99629.84;4486696;32;20108;-78
2022/03/13 11:18:57;;;;;;;14.57;6.50;;;;;;;9.86;16.50;99638.44;4487591;31;20107;-78
2022/03/13 11:21:25;;;;;;;14.77;6.70;;;;;;;9.80;15.93;99631.62;4487586;31;20087;-78
2022/03/13 11:23:51;;;;;;;14.48;6.22;;;;;;;9.88;15.89;99631.34;4486390;32;20478;-78
2022/03/13 11:26:19;;;;;;;13.68;6.03;;;;;;;9.99;15.73;99628.31;4486387;32;20187;-78
2022/03/13 11:28:46;;;;;;;13.95;5.82;;;;;;;10.08;15.72;99621.81;4486345;32;20110;-78
2022/03/13 11:31:34;;;;;;;13.65;6.35;;;;;;;10.01;15.80;99624.69;4486315;32;20440;-78